Westgard — PDBQ — position and weather

sailwx.info

Track history (hours):
 
Tides and Currents Weather Stations Pressure Air Temp Water Temp Dewpoint Dewpoint Depression Visibility Wind Speed Wind Dir Waves Ship Positions

Westgard

Last reported at 2016-Feb-06 05:33 UTC. Time now 2016-Feb-13 06:51 UTC.
Position N 46°03' W 001°30'.

Length 89 m; draft 3.5 m.

Type: Ship. MMSI: 246457000.

Date/timePositionNaut miles runAvg speedWind from/ knotsBaromVisibWave heightAir tempDewpointWater temp
2016-Feb-06 05:33N 46°03' W 001°30'1211.7
2016-Feb-06 04:34N 46°02' W 001°13'11 9.0
2016-Feb-06 03:19N 45°56' W 001°00'3 0.1
2016-Feb-05 00:29N 45°58' W 001°00'8 8.5
2016-Feb-04 23:33N 46°00' W 001°11'9 9.2
2016-Feb-04 22:33N 46°07' W 001°21'1210.5
2016-Feb-04 21:27N 46°11' W 001°36'1011.5
2016-Feb-04 20:33N 46°15' W 001°50'1111.3
2016-Feb-04 19:33N 46°22' W 002°03'7311.5
2016-Feb-04 13:13N 47°07' W 003°27'812.0
2016-Feb-04 12:33N 47°12' W 003°36'1311.8
2016-Feb-04 11:29N 47°20' W 003°50'5811.4
2016-Feb-04 06:26N 47°55' W 004°59'255 6.4
2016-Feb-02 14:21N 50°33' E 000°07'6 7.6
2016-Feb-02 13:31N 50°35' E 000°17'8 8.5
2016-Feb-02 12:33N 50°38' E 000°29'9 8.7
2016-Feb-02 11:33N 50°42' E 000°41'28 9.3
2016-Feb-02 08:33N 50°59' E 001°17'9 8.8
2016-Feb-02 07:33N 51°04' E 001°27'8 7.7
2016-Feb-02 06:33N 51°09' E 001°37'7 6.9
2016-Feb-02 05:33N 51°13' E 001°46'7 7.2
2016-Feb-02 04:33N 51°19' E 001°52'8 8.3
2016-Feb-02 03:33N 51°26' E 001°60'9 7.9
2016-Feb-02 02:26N 51°33' E 002°09'6 7.0
2016-Feb-02 01:33N 51°37' E 002°15'155 6.2
2016-Feb-01 00:32N 53°34' E 005°04'8 8.6
2016-Jan-31 23:33N 53°36' E 005°18'9 8.7
2016-Jan-31 22:33N 53°39' E 005°32'9 8.8
2016-Jan-31 21:33N 53°42' E 005°46'10 9.6
2016-Jan-31 20:33N 53°45' E 006°01'1010.1
2016-Jan-31 19:33N 53°48' E 006°17'1010.4
2016-Jan-31 18:33N 53°51' E 006°34'1010.0
2016-Jan-31 17:33N 53°54' E 006°51'9 9.4
2016-Jan-31 16:33N 53°56' E 007°06'7 6.7
2016-Jan-31 15:32N 53°57' E 007°17'8 5.4
2016-Jan-31 14:06N 53°59' E 007°30'3 4.9
2016-Jan-31 13:33N 54°00' E 007°35'5 4.6
2016-Jan-31 12:33N 54°01' E 007°42'4 4.3
2016-Jan-31 11:33N 54°01' E 007°50'5 5.0
2016-Jan-31 10:33N 54°01' E 007°58'6 5.5
2016-Jan-31 09:33N 54°01' E 008°07'7 6.5
2016-Jan-31 08:33N 54°00' E 008°19'1212.2
2016-Jan-31 07:33N 53°57' E 008°39'1111.3
2016-Jan-31 06:33N 53°51' E 008°54'9 8.9
2016-Jan-31 05:33N 53°54' E 009°09'0 0.3
2016-Jan-31 04:25N 53°54' E 009°09'0 0.3
2016-Jan-31 03:32N 53°54' E 009°09'29 5.7
2016-Jan-30 22:23N 54°17' E 009°40'4 4.5
2016-Jan-30 21:33N 54°20' E 009°44'8 7.7
2016-Jan-30 20:33N 54°21' E 009°57'7 6.7
2016-Jan-30 19:33N 54°22' E 010°08'0 0.4
2016-Jan-30 18:33N 54°22' E 010°09'17 8.3
2016-Jan-30 16:29N 54°33' E 010°31'9 9.8
2016-Jan-30 15:33N 54°35' E 010°46'9 9.2
2016-Jan-30 14:33N 54°36' E 011°02'8 8.4
2016-Jan-30 13:33N 54°35' E 011°17'9 9.0
2016-Jan-30 12:33N 54°32' E 011°31'10 9.5
2016-Jan-30 11:33N 54°30' E 011°47'9 9.3
2016-Jan-30 10:33N 54°29' E 012°03'11 8.8
2016-Jan-30 09:19N 54°37' E 012°16'7 9.3
2016-Jan-30 08:33N 54°42' E 012°26'48 9.0
2016-Jan-30 03:11N 55°02' E 013°42'6 9.3
2016-Jan-30 02:33N 55°04' E 013°51'6 6.5
2016-Jan-30 01:33N 55°06' E 014°02'4 4.3
2016-Jan-30 00:33N 55°08' E 014°09'4 4.2
2016-Jan-29 23:33N 55°11' E 014°14'4 3.7
2016-Jan-29 22:33N 55°14' E 014°18'3 3.5
2016-Jan-29 21:33N 55°16' E 014°22'3 3.4
2016-Jan-29 20:33N 55°19' E 014°26'3 2.6
2016-Jan-29 19:33N 55°21' E 014°29'3 2.5
2016-Jan-29 18:33N 55°23' E 014°32'3 2.6
2016-Jan-29 17:33N 55°25' E 014°35'3 2.7
2016-Jan-29 16:33N 55°27' E 014°38'3 3.4
2016-Jan-29 15:33N 55°28' E 014°43'4 3.7
2016-Jan-29 14:33N 55°30' E 014°49'4 4.0
2016-Jan-29 13:32N 55°32' E 014°55'5 4.6
2016-Jan-29 12:32N 55°34' E 015°02'5 5.2
2016-Jan-29 11:33N 55°37' E 015°10'108 7.7
2016-Jan-28 21:32N 57°02' E 017°10'1010.2
2016-Jan-28 20:33N 57°12' E 017°14'1010.4
2016-Jan-28 19:33N 57°22' E 017°19'9 9.2
2016-Jan-28 18:33N 57°31' E 017°24'  
Track history (hours):
 
Tides and Currents Weather Stations Pressure Air Temp Water Temp Dewpoint Dewpoint Depression Visibility Wind Speed Wind Dir Waves Ship Positions

Westgard

Last reported at 2016-Feb-06 05:33 UTC. Time now 2016-Feb-13 06:51 UTC.
Position N 46°03' W 001°30'.

Length 89 m; draft 3.5 m.

Type: Ship. MMSI: 246457000.

Date/timePositionNaut miles runAvg speedWind from/ knotsBaromVisibWave heightAir tempDewpointWater temp
2016-Feb-06 05:33N 46°03' W 001°30'1211.7
2016-Feb-06 04:34N 46°02' W 001°13'11 9.0
2016-Feb-06 03:19N 45°56' W 001°00'3 0.1
2016-Feb-05 00:29N 45°58' W 001°00'8 8.5
2016-Feb-04 23:33N 46°00' W 001°11'9 9.2
2016-Feb-04 22:33N 46°07' W 001°21'1210.5
2016-Feb-04 21:27N 46°11' W 001°36'1011.5
2016-Feb-04 20:33N 46°15' W 001°50'1111.3
2016-Feb-04 19:33N 46°22' W 002°03'7311.5
2016-Feb-04 13:13N 47°07' W 003°27'812.0
2016-Feb-04 12:33N 47°12' W 003°36'1311.8
2016-Feb-04 11:29N 47°20' W 003°50'5811.4
2016-Feb-04 06:26N 47°55' W 004°59'255 6.4
2016-Feb-02 14:21N 50°33' E 000°07'6 7.6
2016-Feb-02 13:31N 50°35' E 000°17'8 8.5
2016-Feb-02 12:33N 50°38' E 000°29'9 8.7
2016-Feb-02 11:33N 50°42' E 000°41'28 9.3
2016-Feb-02 08:33N 50°59' E 001°17'9 8.8
2016-Feb-02 07:33N 51°04' E 001°27'8 7.7
2016-Feb-02 06:33N 51°09' E 001°37'7 6.9
2016-Feb-02 05:33N 51°13' E 001°46'7 7.2
2016-Feb-02 04:33N 51°19' E 001°52'8 8.3
2016-Feb-02 03:33N 51°26' E 001°60'9 7.9
2016-Feb-02 02:26N 51°33' E 002°09'6 7.0
2016-Feb-02 01:33N 51°37' E 002°15'155 6.2
2016-Feb-01 00:32N 53°34' E 005°04'8 8.6
2016-Jan-31 23:33N 53°36' E 005°18'9 8.7
2016-Jan-31 22:33N 53°39' E 005°32'9 8.8
2016-Jan-31 21:33N 53°42' E 005°46'10 9.6
2016-Jan-31 20:33N 53°45' E 006°01'1010.1
2016-Jan-31 19:33N 53°48' E 006°17'1010.4
2016-Jan-31 18:33N 53°51' E 006°34'1010.0
2016-Jan-31 17:33N 53°54' E 006°51'9 9.4
2016-Jan-31 16:33N 53°56' E 007°06'7 6.7
2016-Jan-31 15:32N 53°57' E 007°17'8 5.4
2016-Jan-31 14:06N 53°59' E 007°30'3 4.9
2016-Jan-31 13:33N 54°00' E 007°35'5 4.6
2016-Jan-31 12:33N 54°01' E 007°42'4 4.3
2016-Jan-31 11:33N 54°01' E 007°50'5 5.0
2016-Jan-31 10:33N 54°01' E 007°58'6 5.5
2016-Jan-31 09:33N 54°01' E 008°07'7 6.5
2016-Jan-31 08:33N 54°00' E 008°19'1212.2
2016-Jan-31 07:33N 53°57' E 008°39'1111.3
2016-Jan-31 06:33N 53°51' E 008°54'9 8.9
2016-Jan-31 05:33N 53°54' E 009°09'0 0.3
2016-Jan-31 04:25N 53°54' E 009°09'0 0.3
2016-Jan-31 03:32N 53°54' E 009°09'29 5.7
2016-Jan-30 22:23N 54°17' E 009°40'4 4.5
2016-Jan-30 21:33N 54°20' E 009°44'8 7.7
2016-Jan-30 20:33N 54°21' E 009°57'7 6.7
2016-Jan-30 19:33N 54°22' E 010°08'0 0.4
2016-Jan-30 18:33N 54°22' E 010°09'17 8.3
2016-Jan-30 16:29N 54°33' E 010°31'9 9.8
2016-Jan-30 15:33N 54°35' E 010°46'9 9.2
2016-Jan-30 14:33N 54°36' E 011°02'8 8.4
2016-Jan-30 13:33N 54°35' E 011°17'9 9.0
2016-Jan-30 12:33N 54°32' E 011°31'10 9.5
2016-Jan-30 11:33N 54°30' E 011°47'9 9.3
2016-Jan-30 10:33N 54°29' E 012°03'11 8.8
2016-Jan-30 09:19N 54°37' E 012°16'7 9.3
2016-Jan-30 08:33N 54°42' E 012°26'48 9.0
2016-Jan-30 03:11N 55°02' E 013°42'6 9.3
2016-Jan-30 02:33N 55°04' E 013°51'6 6.5
2016-Jan-30 01:33N 55°06' E 014°02'4 4.3
2016-Jan-30 00:33N 55°08' E 014°09'4 4.2
2016-Jan-29 23:33N 55°11' E 014°14'4 3.7
2016-Jan-29 22:33N 55°14' E 014°18'3 3.5
2016-Jan-29 21:33N 55°16' E 014°22'3 3.4
2016-Jan-29 20:33N 55°19' E 014°26'3 2.6
2016-Jan-29 19:33N 55°21' E 014°29'3 2.5
2016-Jan-29 18:33N 55°23' E 014°32'3 2.6
2016-Jan-29 17:33N 55°25' E 014°35'3 2.7
2016-Jan-29 16:33N 55°27' E 014°38'3 3.4
2016-Jan-29 15:33N 55°28' E 014°43'4 3.7
2016-Jan-29 14:33N 55°30' E 014°49'4 4.0
2016-Jan-29 13:32N 55°32' E 014°55'5 4.6
2016-Jan-29 12:32N 55°34' E 015°02'5 5.2
2016-Jan-29 11:33N 55°37' E 015°10'108 7.7
2016-Jan-28 21:32N 57°02' E 017°10'1010.2
2016-Jan-28 20:33N 57°12' E 017°14'1010.4
2016-Jan-28 19:33N 57°22' E 017°19'9 9.2
2016-Jan-28 18:33N 57°31' E 017°24'  

Dump ship's entire track history